Jiggs, Nevada
Current Conditions -  °F | °C
As of 12:56 PM on Tuesday 25 Nov 2014 (Local Time) from KEKO Reporting Station
Overcast Overcast  
Wind Chill: 51°   Ceiling: 6000
Heat Index: 51°   Visibility: 10mi
Dew Point: 30°   Wind: 10mph
Humidity: 44%   Direction: 220°SW
Pressure: 30.4"   Gusts: NA
Location:  40.5527°N, 115.577°W
Report Text: KEKO 252056Z AUTO 22009KT 10SM OVC060 11/M01 A3040 RMK AO2 SLP298 T01061011 58019
Loading
Personal Weather Stations






























Interactive Weather Map New forecast layout! Learn more

10-Day Weather Forecast

Advertisements
Track Severe Weather on mobile